sensor_id;sensor_type;location;lat;lon;timestamp;pressure;altitude;pressure_sealevel;temperature;humidity
76060;BME280;64759;52.220;5.170;2023-02-25T00:00:41;100782.72;;;5.33;71.74
76060;BME280;64759;52.220;5.170;2023-02-25T00:03:09;100792.78;;;5.36;71.85
76060;BME280;64759;52.220;5.170;2023-02-25T00:05:40;100805.16;;;5.18;72.79
76060;BME280;64759;52.220;5.170;2023-02-25T00:08:07;100798.50;;;5.15;72.05
76060;BME280;64759;52.220;5.170;2023-02-25T00:10:33;100799.72;;;5.22;73.12
76060;BME280;64759;52.220;5.170;2023-02-25T00:12:59;100780.94;;;5.09;73.83
76060;BME280;64759;52.220;5.170;2023-02-25T00:15:25;100779.72;;;5.15;73.83
76060;BME280;64759;52.220;5.170;2023-02-25T00:17:50;100780.22;;;5.20;72.80
76060;BME280;64759;52.220;5.170;2023-02-25T00:20:17;100782.78;;;5.20;73.64
76060;BME280;64759;52.220;5.170;2023-02-25T00:22:49;100781.34;;;5.16;73.57
76060;BME280;64759;52.220;5.170;2023-02-25T00:25:15;100785.22;;;5.21;73.85
76060;BME280;64759;52.220;5.170;2023-02-25T00:27:41;100782.66;;;5.21;73.74
76060;BME280;64759;52.220;5.170;2023-02-25T00:30:07;100783.94;;;5.16;74.05
76060;BME280;64759;52.220;5.170;2023-02-25T00:32:36;100780.03;;;5.10;74.26
76060;BME280;64759;52.220;5.170;2023-02-25T00:35:02;100782.94;;;5.06;74.77
76060;BME280;64759;52.220;5.170;2023-02-25T00:37:28;100785.91;;;5.00;74.43
76060;BME280;64759;52.220;5.170;2023-02-25T00:39:53;100789.88;;;5.04;73.88
76060;BME280;64759;52.220;5.170;2023-02-25T00:42:19;100789.28;;;5.00;74.52
76060;BME280;64759;52.220;5.170;2023-02-25T00:44:46;100789.63;;;4.96;74.78
76060;BME280;64759;52.220;5.170;2023-02-25T00:47:15;100793.94;;;4.95;74.45
76060;BME280;64759;52.220;5.170;2023-02-25T00:49:41;100799.06;;;4.95;74.89
76060;BME280;64759;52.220;5.170;2023-02-25T00:52:07;100801.75;;;4.94;75.31
76060;BME280;64759;52.220;5.170;2023-02-25T00:54:33;100801.63;;;4.95;74.97
76060;BME280;64759;52.220;5.170;2023-02-25T00:56:59;100798.84;;;4.98;74.38
76060;BME280;64759;52.220;5.170;2023-02-25T00:59:24;100800.97;;;5.04;74.99
76060;BME280;64759;52.220;5.170;2023-02-25T01:01:50;100803.47;;;5.06;74.71
76060;BME280;64759;52.220;5.170;2023-02-25T01:04:16;100799.34;;;5.03;75.08
76060;BME280;64759;52.220;5.170;2023-02-25T01:06:41;100798.41;;;5.04;74.63
76060;BME280;64759;52.220;5.170;2023-02-25T01:09:09;100807.13;;;5.02;75.08
76060;BME280;64759;52.220;5.170;2023-02-25T01:11:39;100804.25;;;5.06;75.19
76060;BME280;64759;52.220;5.170;2023-02-25T01:14:07;100810.63;;;5.13;75.10
76060;BME280;64759;52.220;5.170;2023-02-25T01:16:35;100818.72;;;5.20;74.81
76060;BME280;64759;52.220;5.170;2023-02-25T01:19:07;100816.53;;;5.26;74.12
76060;BME280;64759;52.220;5.170;2023-02-25T01:21:36;100799.72;;;5.22;74.52
76060;BME280;64759;52.220;5.170;2023-02-25T01:24:09;100802.31;;;5.34;74.60
76060;BME280;64759;52.220;5.170;2023-02-25T01:26:38;100804.69;;;5.37;74.67
76060;BME280;64759;52.220;5.170;2023-02-25T01:29:07;100813.00;;;5.40;74.44
76060;BME280;64759;52.220;5.170;2023-02-25T01:31:33;100804.97;;;5.45;73.87
76060;BME280;64759;52.220;5.170;2023-02-25T01:34:01;100808.75;;;5.28;74.54
76060;BME280;64759;52.220;5.170;2023-02-25T01:36:29;100818.13;;;5.40;74.43
76060;BME280;64759;52.220;5.170;2023-02-25T01:38:56;100830.25;;;5.38;74.57
76060;BME280;64759;52.220;5.170;2023-02-25T01:41:23;100830.00;;;5.54;74.50
76060;BME280;64759;52.220;5.170;2023-02-25T01:44:06;100821.75;;;5.38;75.50
76060;BME280;64759;52.220;5.170;2023-02-25T01:46:32;100819.50;;;5.33;75.24
76060;BME280;64759;52.220;5.170;2023-02-25T01:48:59;100809.66;;;5.27;75.59
76060;BME280;64759;52.220;5.170;2023-02-25T01:51:26;100819.81;;;5.28;76.79
76060;BME280;64759;52.220;5.170;2023-02-25T01:53:54;100803.72;;;5.14;76.97
76060;BME280;64759;52.220;5.170;2023-02-25T01:56:22;100814.16;;;5.23;77.03
76060;BME280;64759;52.220;5.170;2023-02-25T01:58:51;100796.09;;;5.25;76.79
76060;BME280;64759;52.220;5.170;2023-02-25T02:01:19;100815.69;;;5.26;75.65
76060;BME280;64759;52.220;5.170;2023-02-25T02:03:47;100806.97;;;5.28;76.50
76060;BME280;64759;52.220;5.170;2023-02-25T02:06:17;100809.22;;;5.33;75.88
76060;BME280;64759;52.220;5.170;2023-02-25T02:08:47;100808.63;;;5.29;76.13
76060;BME280;64759;52.220;5.170;2023-02-25T02:11:14;100804.03;;;5.09;75.14
76060;BME280;64759;52.220;5.170;2023-02-25T02:13:46;100800.34;;;5.13;75.63
76060;BME280;64759;52.220;5.170;2023-02-25T02:18:53;100798.72;;;5.12;75.45
76060;BME280;64759;52.220;5.170;2023-02-25T02:21:31;100799.09;;;5.19;74.90
76060;BME280;64759;52.220;5.170;2023-02-25T02:24:17;100796.31;;;5.22;74.59
76060;BME280;64759;52.220;5.170;2023-02-25T02:27:02;100801.56;;;5.20;75.19
76060;BME280;64759;52.220;5.170;2023-02-25T02:29:46;100799.00;;;5.20;74.17
76060;BME280;64759;52.220;5.170;2023-02-25T02:32:28;100801.31;;;5.23;74.43
76060;BME280;64759;52.220;5.170;2023-02-25T02:35:04;100806.69;;;5.20;74.35
76060;BME280;64759;52.220;5.170;2023-02-25T02:37:41;100806.47;;;5.23;74.22
76060;BME280;64759;52.220;5.170;2023-02-25T02:40:24;100805.75;;;5.21;74.83
76060;BME280;64759;52.220;5.170;2023-02-25T02:46:04;100809.81;;;5.13;74.79
76060;BME280;64759;52.220;5.170;2023-02-25T02:48:40;100800.81;;;5.18;74.44
76060;BME280;64759;52.220;5.170;2023-02-25T02:51:16;100809.97;;;5.22;74.49
76060;BME280;64759;52.220;5.170;2023-02-25T02:53:50;100805.00;;;5.32;73.81
76060;BME280;64759;52.220;5.170;2023-02-25T02:56:18;100801.44;;;5.22;73.77
76060;BME280;64759;52.220;5.170;2023-02-25T03:01:27;100808.81;;;5.26;73.92
76060;BME280;64759;52.220;5.170;2023-02-25T03:04:00;100809.22;;;5.33;73.73
76060;BME280;64759;52.220;5.170;2023-02-25T03:06:36;100811.31;;;5.28;73.43
76060;BME280;64759;52.220;5.170;2023-02-25T03:09:28;100807.13;;;5.38;73.26
76060;BME280;64759;52.220;5.170;2023-02-25T03:11:56;100806.84;;;5.43;73.69
76060;BME280;64759;52.220;5.170;2023-02-25T03:14:22;100806.59;;;5.46;72.76
76060;BME280;64759;52.220;5.170;2023-02-25T03:16:55;100811.34;;;5.39;72.70
76060;BME280;64759;52.220;5.170;2023-02-25T03:19:31;100813.25;;;5.48;73.23
76060;BME280;64759;52.220;5.170;2023-02-25T03:22:08;100814.53;;;5.43;73.02
76060;BME280;64759;52.220;5.170;2023-02-25T03:24:42;100823.03;;;5.43;73.18
76060;BME280;64759;52.220;5.170;2023-02-25T03:27:28;100814.03;;;5.38;72.56
76060;BME280;64759;52.220;5.170;2023-02-25T03:30:03;100819.06;;;5.39;72.29
76060;BME280;64759;52.220;5.170;2023-02-25T03:32:31;100813.63;;;5.31;72.01
76060;BME280;64759;52.220;5.170;2023-02-25T03:35:00;100813.03;;;5.27;72.42
76060;BME280;64759;52.220;5.170;2023-02-25T03:37:30;100819.00;;;5.28;71.67
76060;BME280;64759;52.220;5.170;2023-02-25T03:40:00;100819.75;;;5.17;71.44
76060;BME280;64759;52.220;5.170;2023-02-25T03:42:33;100825.78;;;5.16;72.17
76060;BME280;64759;52.220;5.170;2023-02-25T03:45:01;100829.72;;;4.97;72.33
76060;BME280;64759;52.220;5.170;2023-02-25T03:47:29;100815.81;;;4.88;72.18
76060;BME280;64759;52.220;5.170;2023-02-25T03:52:46;100834.47;;;5.03;71.96
76060;BME280;64759;52.220;5.170;2023-02-25T03:55:42;100836.31;;;5.01;71.20
76060;BME280;64759;52.220;5.170;2023-02-25T03:58:08;100840.63;;;5.00;71.54
76060;BME280;64759;52.220;5.170;2023-02-25T04:00:35;100839.91;;;4.98;71.38
76060;BME280;64759;52.220;5.170;2023-02-25T04:03:02;100846.25;;;5.05;70.87
76060;BME280;64759;52.220;5.170;2023-02-25T04:05:28;100856.31;;;5.08;71.58
76060;BME280;64759;52.220;5.170;2023-02-25T04:07:55;100845.75;;;5.13;71.17
76060;BME280;64759;52.220;5.170;2023-02-25T04:10:21;100848.19;;;5.14;71.33
76060;BME280;64759;52.220;5.170;2023-02-25T04:12:46;100847.47;;;5.12;70.99
76060;BME280;64759;52.220;5.170;2023-02-25T04:15:13;100851.59;;;5.15;71.31
76060;BME280;64759;52.220;5.170;2023-02-25T04:17:39;100856.41;;;5.07;71.26
76060;BME280;64759;52.220;5.170;2023-02-25T04:20:05;100846.78;;;4.98;71.50
76060;BME280;64759;52.220;5.170;2023-02-25T04:22:31;100850.97;;;4.99;71.32
76060;BME280;64759;52.220;5.170;2023-02-25T04:24:57;100862.06;;;4.99;70.77
76060;BME280;64759;52.220;5.170;2023-02-25T04:27:22;100861.03;;;4.89;70.69
76060;BME280;64759;52.220;5.170;2023-02-25T04:29:48;100856.75;;;4.77;71.29
76060;BME280;64759;52.220;5.170;2023-02-25T04:32:13;100861.47;;;4.83;71.50
76060;BME280;64759;52.220;5.170;2023-02-25T04:34:39;100862.59;;;4.79;70.90
76060;BME280;64759;52.220;5.170;2023-02-25T04:37:04;100864.03;;;4.83;71.10
76060;BME280;64759;52.220;5.170;2023-02-25T04:39:31;100857.69;;;4.76;71.10
76060;BME280;64759;52.220;5.170;2023-02-25T04:41:57;100867.63;;;4.81;70.61
76060;BME280;64759;52.220;5.170;2023-02-25T04:44:23;100873.28;;;4.86;71.01
76060;BME280;64759;52.220;5.170;2023-02-25T04:46:48;100871.63;;;4.85;70.69
76060;BME280;64759;52.220;5.170;2023-02-25T04:49:17;100874.00;;;4.88;70.38
76060;BME280;64759;52.220;5.170;2023-02-25T04:51:43;100874.09;;;4.86;70.23
76060;BME280;64759;52.220;5.170;2023-02-25T04:54:09;100884.88;;;4.79;70.77
76060;BME280;64759;52.220;5.170;2023-02-25T04:56:35;100871.31;;;4.77;71.43
76060;BME280;64759;52.220;5.170;2023-02-25T04:59:01;100880.53;;;4.79;70.47
76060;BME280;64759;52.220;5.170;2023-02-25T05:01:27;100879.84;;;4.77;71.52
76060;BME280;64759;52.220;5.170;2023-02-25T05:03:53;100879.84;;;4.77;71.49
76060;BME280;64759;52.220;5.170;2023-02-25T05:06:24;100882.31;;;4.79;70.60
76060;BME280;64759;52.220;5.170;2023-02-25T05:08:50;100872.75;;;4.81;71.21
76060;BME280;64759;52.220;5.170;2023-02-25T05:11:16;100870.28;;;4.79;70.88
76060;BME280;64759;52.220;5.170;2023-02-25T05:13:41;100874.50;;;4.80;70.73
76060;BME280;64759;52.220;5.170;2023-02-25T05:16:09;100881.81;;;4.74;71.36
76060;BME280;64759;52.220;5.170;2023-02-25T05:18:36;100877.59;;;4.85;70.98
76060;BME280;64759;52.220;5.170;2023-02-25T05:21:02;100881.88;;;4.85;71.86
76060;BME280;64759;52.220;5.170;2023-02-25T05:23:27;100876.03;;;4.83;71.92
76060;BME280;64759;52.220;5.170;2023-02-25T05:25:53;100880.78;;;4.76;71.51
76060;BME280;64759;52.220;5.170;2023-02-25T05:28:19;100879.44;;;4.83;71.72
76060;BME280;64759;52.220;5.170;2023-02-25T05:30:44;100884.88;;;4.79;71.78
76060;BME280;64759;52.220;5.170;2023-02-25T05:33:09;100885.69;;;4.79;72.15
76060;BME280;64759;52.220;5.170;2023-02-25T05:35:38;100883.22;;;4.78;71.96
76060;BME280;64759;52.220;5.170;2023-02-25T05:38:05;100887.84;;;4.73;72.43
76060;BME280;64759;52.220;5.170;2023-02-25T05:40:30;100885.78;;;4.78;72.04
76060;BME280;64759;52.220;5.170;2023-02-25T05:42:57;100886.81;;;4.75;71.98
76060;BME280;64759;52.220;5.170;2023-02-25T05:45:22;100881.88;;;4.72;71.98
76060;BME280;64759;52.220;5.170;2023-02-25T05:47:47;100882.00;;;4.71;72.44
76060;BME280;64759;52.220;5.170;2023-02-25T05:50:13;100884.03;;;4.66;72.94
76060;BME280;64759;52.220;5.170;2023-02-25T05:52:38;100888.34;;;4.65;72.56
76060;BME280;64759;52.220;5.170;2023-02-25T05:55:04;100883.94;;;4.67;72.84
76060;BME280;64759;52.220;5.170;2023-02-25T05:57:30;100888.16;;;4.68;72.99
76060;BME280;64759;52.220;5.170;2023-02-25T05:59:55;100885.97;;;4.62;72.96
76060;BME280;64759;52.220;5.170;2023-02-25T06:02:20;100882.50;;;4.63;72.65
76060;BME280;64759;52.220;5.170;2023-02-25T06:04:46;100886.81;;;4.62;72.72
76060;BME280;64759;52.220;5.170;2023-02-25T06:07:13;100899.53;;;4.64;72.49
76060;BME280;64759;52.220;5.170;2023-02-25T06:09:38;100897.78;;;4.64;73.05
76060;BME280;64759;52.220;5.170;2023-02-25T06:12:04;100901.09;;;4.67;72.64
76060;BME280;64759;52.220;5.170;2023-02-25T06:14:30;100903.03;;;4.63;72.60
76060;BME280;64759;52.220;5.170;2023-02-25T06:16:55;100903.41;;;4.57;73.22
76060;BME280;64759;52.220;5.170;2023-02-25T06:19:22;100912.16;;;4.54;72.90
76060;BME280;64759;52.220;5.170;2023-02-25T06:21:47;100909.19;;;4.60;72.52
76060;BME280;64759;52.220;5.170;2023-02-25T06:24:13;100910.19;;;4.58;72.63
76060;BME280;64759;52.220;5.170;2023-02-25T06:26:40;100916.22;;;4.57;72.25
76060;BME280;64759;52.220;5.170;2023-02-25T06:29:09;100922.69;;;4.50;72.80
76060;BME280;64759;52.220;5.170;2023-02-25T06:31:35;100922.50;;;4.53;72.34
76060;BME280;64759;52.220;5.170;2023-02-25T06:34:01;100920.34;;;4.59;72.26
76060;BME280;64759;52.220;5.170;2023-02-25T06:36:26;100918.81;;;4.57;72.24
76060;BME280;64759;52.220;5.170;2023-02-25T06:38:51;100926.22;;;4.61;72.84
76060;BME280;64759;52.220;5.170;2023-02-25T06:41:19;100920.25;;;4.61;72.27
76060;BME280;64759;52.220;5.170;2023-02-25T06:43:46;100924.56;;;4.60;72.24
76060;BME280;64759;52.220;5.170;2023-02-25T06:46:16;100931.72;;;4.55;72.47
76060;BME280;64759;52.220;5.170;2023-02-25T06:48:42;100940.66;;;4.62;72.46
76060;BME280;64759;52.220;5.170;2023-02-25T06:51:07;100940.47;;;4.66;72.22
76060;BME280;64759;52.220;5.170;2023-02-25T06:53:38;100947.03;;;4.70;72.65
76060;BME280;64759;52.220;5.170;2023-02-25T06:56:05;100935.97;;;4.69;72.35
76060;BME280;64759;52.220;5.170;2023-02-25T06:58:31;100951.06;;;4.74;71.58
76060;BME280;64759;52.220;5.170;2023-02-25T07:00:57;100954.16;;;4.79;72.64
76060;BME280;64759;52.220;5.170;2023-02-25T07:03:22;100954.75;;;4.82;72.07
76060;BME280;64759;52.220;5.170;2023-02-25T07:05:47;100954.66;;;4.84;71.86
76060;BME280;64759;52.220;5.170;2023-02-25T07:08:13;100952.91;;;4.84;71.82
76060;BME280;64759;52.220;5.170;2023-02-25T07:10:38;100957.22;;;4.84;71.52
76060;BME280;64759;52.220;5.170;2023-02-25T07:13:08;100956.09;;;4.75;71.62
76060;BME280;64759;52.220;5.170;2023-02-25T07:15:34;100949.63;;;4.82;72.42
76060;BME280;64759;52.220;5.170;2023-02-25T07:18:00;100951.66;;;4.77;72.33
76060;BME280;64759;52.220;5.170;2023-02-25T07:20:26;100957.03;;;4.74;72.16
76060;BME280;64759;52.220;5.170;2023-02-25T07:22:51;100953.13;;;4.81;71.70
76060;BME280;64759;52.220;5.170;2023-02-25T07:25:16;100966.22;;;4.77;72.85
76060;BME280;64759;52.220;5.170;2023-02-25T07:27:43;100970.34;;;4.79;72.43
76060;BME280;64759;52.220;5.170;2023-02-25T07:30:09;100974.25;;;4.85;72.67
76060;BME280;64759;52.220;5.170;2023-02-25T07:32:41;100978.34;;;4.87;72.50
76060;BME280;64759;52.220;5.170;2023-02-25T07:35:07;100979.81;;;4.91;71.44
76060;BME280;64759;52.220;5.170;2023-02-25T07:37:33;100982.88;;;4.96;71.60
76060;BME280;64759;52.220;5.170;2023-02-25T07:39:58;100988.53;;;5.01;72.40
76060;BME280;64759;52.220;5.170;2023-02-25T07:42:27;100987.41;;;4.93;72.28
76060;BME280;64759;52.220;5.170;2023-02-25T07:44:57;100995.72;;;4.96;72.75
76060;BME280;64759;52.220;5.170;2023-02-25T07:47:22;101000.16;;;5.07;71.86
76060;BME280;64759;52.220;5.170;2023-02-25T07:49:47;101008.56;;;5.09;72.07
76060;BME280;64759;52.220;5.170;2023-02-25T07:52:13;101003.03;;;5.15;71.78
76060;BME280;64759;52.220;5.170;2023-02-25T07:54:38;101007.00;;;5.06;73.00
76060;BME280;64759;52.220;5.170;2023-02-25T07:57:04;101019.56;;;5.11;73.51
76060;BME280;64759;52.220;5.170;2023-02-25T07:59:32;101013.09;;;5.05;73.44
76060;BME280;64759;52.220;5.170;2023-02-25T08:01:58;101011.75;;;5.00;74.72
76060;BME280;64759;52.220;5.170;2023-02-25T08:04:24;101009.16;;;5.00;75.09
76060;BME280;64759;52.220;5.170;2023-02-25T08:06:49;101017.09;;;5.09;75.41
76060;BME280;64759;52.220;5.170;2023-02-25T08:09:16;101023.75;;;5.12;75.06
76060;BME280;64759;52.220;5.170;2023-02-25T08:11:41;101020.69;;;5.07;75.19
76060;BME280;64759;52.220;5.170;2023-02-25T08:14:08;101031.97;;;5.17;76.12
76060;BME280;64759;52.220;5.170;2023-02-25T08:16:36;101028.81;;;5.13;75.99
76060;BME280;64759;52.220;5.170;2023-02-25T08:19:03;101029.94;;;5.22;75.80
76060;BME280;64759;52.220;5.170;2023-02-25T08:21:30;101022.63;;;5.28;75.91
76060;BME280;64759;52.220;5.170;2023-02-25T08:23:55;101040.53;;;5.43;75.62
76060;BME280;64759;52.220;5.170;2023-02-25T08:26:22;101038.16;;;5.40;75.38
76060;BME280;64759;52.220;5.170;2023-02-25T08:28:49;101047.19;;;5.33;75.31
76060;BME280;64759;52.220;5.170;2023-02-25T08:31:17;101047.72;;;5.38;76.14
76060;BME280;64759;52.220;5.170;2023-02-25T08:33:44;101038.34;;;5.37;76.15
76060;BME280;64759;52.220;5.170;2023-02-25T08:36:19;101037.97;;;5.43;75.76
76060;BME280;64759;52.220;5.170;2023-02-25T08:38:45;101040.72;;;5.40;75.20
76060;BME280;64759;52.220;5.170;2023-02-25T08:41:11;101042.28;;;5.55;74.51
76060;BME280;64759;52.220;5.170;2023-02-25T08:43:36;101034.84;;;5.75;73.74
76060;BME280;64759;52.220;5.170;2023-02-25T08:46:04;101041.31;;;5.93;73.22
76060;BME280;64759;52.220;5.170;2023-02-25T08:48:32;101050.25;;;6.01;72.33
76060;BME280;64759;52.220;5.170;2023-02-25T08:51:06;101046.81;;;6.13;72.01
76060;BME280;64759;52.220;5.170;2023-02-25T08:53:35;101050.09;;;6.15;71.75
76060;BME280;64759;52.220;5.170;2023-02-25T08:56:04;101046.06;;;6.23;71.41
76060;BME280;64759;52.220;5.170;2023-02-25T08:58:30;101053.94;;;6.09;71.26
76060;BME280;64759;52.220;5.170;2023-02-25T09:00:56;101060.03;;;5.96;71.31
76060;BME280;64759;52.220;5.170;2023-02-25T09:03:21;101071.84;;;5.98;71.51
76060;BME280;64759;52.220;5.170;2023-02-25T09:05:54;101082.13;;;5.85;71.78
76060;BME280;64759;52.220;5.170;2023-02-25T09:08:20;101090.88;;;5.96;72.39
76060;BME280;64759;52.220;5.170;2023-02-25T09:10:46;101085.84;;;5.94;71.67
76060;BME280;64759;52.220;5.170;2023-02-25T09:13:12;101095.16;;;5.82;72.21
76060;BME280;64759;52.220;5.170;2023-02-25T09:15:38;101089.00;;;5.98;70.84
76060;BME280;64759;52.220;5.170;2023-02-25T09:18:03;101093.13;;;6.00;71.91
76060;BME280;64759;52.220;5.170;2023-02-25T09:20:29;101100.22;;;6.09;71.99
76060;BME280;64759;52.220;5.170;2023-02-25T09:22:54;101097.88;;;6.30;71.93
76060;BME280;64759;52.220;5.170;2023-02-25T09:25:20;101100.44;;;6.90;72.07
76060;BME280;64759;52.220;5.170;2023-02-25T09:27:46;101102.84;;;7.72;68.84
76060;BME280;64759;52.220;5.170;2023-02-25T09:30:12;101125.13;;;8.17;68.37
76060;BME280;64759;52.220;5.170;2023-02-25T09:32:37;101118.81;;;7.99;68.12
76060;BME280;64759;52.220;5.170;2023-02-25T09:35:03;101123.81;;;7.56;68.54
76060;BME280;64759;52.220;5.170;2023-02-25T09:37:29;101140.69;;;7.14;69.90
76060;BME280;64759;52.220;5.170;2023-02-25T09:39:54;101144.91;;;6.92;70.26
76060;BME280;64759;52.220;5.170;2023-02-25T09:42:42;101147.50;;;6.68;71.39
76060;BME280;64759;52.220;5.170;2023-02-25T09:45:13;101136.25;;;6.69;68.17
76060;BME280;64759;52.220;5.170;2023-02-25T09:47:48;101137.94;;;6.57;70.54
76060;BME280;64759;52.220;5.170;2023-02-25T09:50:21;101138.81;;;6.69;70.27
76060;BME280;64759;52.220;5.170;2023-02-25T09:53:00;101138.78;;;6.82;69.22
76060;BME280;64759;52.220;5.170;2023-02-25T09:55:30;101141.59;;;6.66;69.76
76060;BME280;64759;52.220;5.170;2023-02-25T09:58:03;101144.09;;;6.68;70.97
76060;BME280;64759;52.220;5.170;2023-02-25T10:00:33;101144.47;;;6.74;70.48
76060;BME280;64759;52.220;5.170;2023-02-25T10:03:09;101135.69;;;6.77;70.58
76060;BME280;64759;52.220;5.170;2023-02-25T10:05:45;101144.69;;;6.95;70.55
76060;BME280;64759;52.220;5.170;2023-02-25T10:08:21;101165.81;;;7.11;69.96
76060;BME280;64759;52.220;5.170;2023-02-25T10:14:14;101160.31;;;7.39;69.64
76060;BME280;64759;52.220;5.170;2023-02-25T10:16:44;101163.19;;;7.58;68.69
76060;BME280;64759;52.220;5.170;2023-02-25T10:24:35;101167.91;;;7.75;65.75
76060;BME280;64759;52.220;5.170;2023-02-25T10:27:15;101178.09;;;7.77;66.12
76060;BME280;64759;52.220;5.170;2023-02-25T10:29:47;101179.66;;;7.90;65.86
76060;BME280;64759;52.220;5.170;2023-02-25T10:32:21;101184.59;;;7.94;65.71
76060;BME280;64759;52.220;5.170;2023-02-25T10:34:51;101186.91;;;8.19;63.29
76060;BME280;64759;52.220;5.170;2023-02-25T10:37:23;101191.69;;;8.90;61.44
76060;BME280;64759;52.220;5.170;2023-02-25T10:39:54;101194.25;;;9.74;59.55
76060;BME280;64759;52.220;5.170;2023-02-25T10:42:21;101195.19;;;10.54;58.26
76060;BME280;64759;52.220;5.170;2023-02-25T10:44:47;101198.88;;;11.30;55.90
76060;BME280;64759;52.220;5.170;2023-02-25T10:47:20;101219.25;;;10.66;55.95
76060;BME280;64759;52.220;5.170;2023-02-25T10:53:00;101233.47;;;8.17;60.14
76060;BME280;64759;52.220;5.170;2023-02-25T10:55:38;101233.31;;;7.85;60.75
76060;BME280;64759;52.220;5.170;2023-02-25T10:58:19;101228.41;;;7.24;62.90
76060;BME280;64759;52.220;5.170;2023-02-25T11:00:55;101226.88;;;7.21;65.24
76060;BME280;64759;52.220;5.170;2023-02-25T11:03:23;101225.00;;;8.04;63.62
76060;BME280;64759;52.220;5.170;2023-02-25T11:05:49;101227.00;;;9.00;62.74
76060;BME280;64759;52.220;5.170;2023-02-25T11:08:31;101225.16;;;9.75;58.71
76060;BME280;64759;52.220;5.170;2023-02-25T11:11:19;101235.47;;;10.37;57.75
76060;BME280;64759;52.220;5.170;2023-02-25T11:13:54;101240.47;;;11.09;55.21
76060;BME280;64759;52.220;5.170;2023-02-25T11:16:20;101235.44;;;11.55;53.39
76060;BME280;64759;52.220;5.170;2023-02-25T11:18:54;101241.31;;;11.67;52.25
76060;BME280;64759;52.220;5.170;2023-02-25T11:21:33;101246.63;;;11.46;51.64
76060;BME280;64759;52.220;5.170;2023-02-25T11:24:04;101237.22;;;11.64;50.20
76060;BME280;64759;52.220;5.170;2023-02-25T11:26:34;101239.66;;;11.95;50.13
76060;BME280;64759;52.220;5.170;2023-02-25T11:29:21;101244.19;;;12.29;49.79
76060;BME280;64759;52.220;5.170;2023-02-25T11:32:00;101243.19;;;12.50;47.05
76060;BME280;64759;52.220;5.170;2023-02-25T11:34:29;101246.28;;;12.16;47.80
76060;BME280;64759;52.220;5.170;2023-02-25T11:39:52;101259.03;;;11.24;48.83
76060;BME280;64759;52.220;5.170;2023-02-25T11:42:23;101255.06;;;11.00;48.57
76060;BME280;64759;52.220;5.170;2023-02-25T11:44:58;101250.31;;;10.66;48.99
76060;BME280;64759;52.220;5.170;2023-02-25T11:47:31;101243.06;;;10.60;49.13
76060;BME280;64759;52.220;5.170;2023-02-25T11:50:26;101245.25;;;10.24;50.53
76060;BME280;64759;52.220;5.170;2023-02-25T11:55:56;101247.81;;;9.31;49.60
76060;BME280;64759;52.220;5.170;2023-02-25T12:09:52;101252.75;;;8.57;48.88
76060;BME280;64759;52.220;5.170;2023-02-25T12:26:14;101251.34;;;8.76;51.84
76060;BME280;64759;52.220;5.170;2023-02-25T12:29:06;101255.78;;;8.96;49.93
76060;BME280;64759;52.220;5.170;2023-02-25T12:40:38;101270.38;;;8.52;50.57
76060;BME280;64759;52.220;5.170;2023-02-25T12:48:52;101284.78;;;8.77;46.23
76060;BME280;64759;52.220;5.170;2023-02-25T12:51:46;101280.91;;;8.61;45.18
76060;BME280;64759;52.220;5.170;2023-02-25T13:02:26;101287.72;;;8.73;44.94
76060;BME280;64759;52.220;5.170;2023-02-25T13:30:04;101306.81;;;10.51;39.27
76060;BME280;64759;52.220;5.170;2023-02-25T13:32:45;101307.38;;;10.55;39.56
76060;BME280;64759;52.220;5.170;2023-02-25T13:43:24;101312.00;;;9.78;41.75
76060;BME280;64759;52.220;5.170;2023-02-25T13:46:00;101324.34;;;10.06;41.67
76060;BME280;64759;52.220;5.170;2023-02-25T13:48:53;101323.59;;;9.95;40.88
76060;BME280;64759;52.220;5.170;2023-02-25T13:51:42;101326.97;;;9.43;41.44
76060;BME280;64759;52.220;5.170;2023-02-25T13:57:00;101315.72;;;9.64;41.14
76060;BME280;64759;52.220;5.170;2023-02-25T14:13:14;101331.44;;;9.41;41.74
76060;BME280;64759;52.220;5.170;2023-02-25T14:16:04;101342.44;;;9.85;40.62
76060;BME280;64759;52.220;5.170;2023-02-25T14:18:49;101342.56;;;10.36;38.41
76060;BME280;64759;52.220;5.170;2023-02-25T14:21:34;101343.31;;;10.48;39.04
76060;BME280;64759;52.220;5.170;2023-02-25T14:24:17;101347.25;;;10.73;39.18
76060;BME280;64759;52.220;5.170;2023-02-25T14:40:31;101382.16;;;9.53;42.98
76060;BME280;64759;52.220;5.170;2023-02-25T14:43:11;101383.28;;;9.06;43.50
76060;BME280;64759;52.220;5.170;2023-02-25T14:45:57;101404.63;;;8.86;45.26
76060;BME280;64759;52.220;5.170;2023-02-25T14:48:45;101389.72;;;8.09;45.97
76060;BME280;64759;52.220;5.170;2023-02-25T14:51:39;101393.84;;;8.11;46.09
76060;BME280;64759;52.220;5.170;2023-02-25T15:00:14;101399.09;;;8.68;43.55
76060;BME280;64759;52.220;5.170;2023-02-25T15:08:52;101422.94;;;8.72;39.52
76060;BME280;64759;52.220;5.170;2023-02-25T15:17:48;101419.19;;;8.30;
76060;BME280;64759;52.220;5.170;2023-02-25T15:20:17;101431.03;;;8.32;41.77
76060;BME280;64759;52.220;5.170;2023-02-25T15:22:55;101431.00;;;8.09;42.57
76060;BME280;64759;52.220;5.170;2023-02-25T15:33:37;101437.00;;;7.85;44.16
76060;BME280;64759;52.220;5.170;2023-02-25T15:38:44;101458.59;;;7.59;44.62
76060;BME280;64759;52.220;5.170;2023-02-25T15:43:51;101467.69;;;7.52;43.78
76060;BME280;64759;52.220;5.170;2023-02-25T15:48:46;101469.25;;;7.55;41.27
76060;BME280;64759;52.220;5.170;2023-02-25T15:51:48;101467.75;;;7.27;42.09
76060;BME280;64759;52.220;5.170;2023-02-25T15:56:59;101473.50;;;7.18;44.45
76060;BME280;64759;52.220;5.170;2023-02-25T16:04:50;101491.25;;;7.10;45.91
76060;BME280;64759;52.220;5.170;2023-02-25T16:07:19;101488.25;;;7.03;45.99
76060;BME280;64759;52.220;5.170;2023-02-25T16:09:53;101488.44;;;6.88;46.97
76060;BME280;64759;52.220;5.170;2023-02-25T16:12:21;101496.19;;;6.88;47.07
76060;BME280;64759;52.220;5.170;2023-02-25T16:14:49;101496.75;;;6.79;46.24
76060;BME280;64759;52.220;5.170;2023-02-25T16:17:21;101502.53;;;6.82;46.56